createdAt,value
2022-10-22T00:00:11.021Z,98211.25
2022-10-22T00:02:38.163Z,98208.78
2022-10-22T00:05:05.403Z,98212.22
2022-10-22T00:07:32.543Z,98208.78
2022-10-22T00:09:59.656Z,98217.56
2022-10-22T00:12:26.734Z,98209.75
2022-10-22T00:14:53.803Z,98209.75
2022-10-22T00:17:20.888Z,98210.69
2022-10-22T00:19:47.969Z,98207.16
2022-10-22T00:22:15.054Z,98208.09
2022-10-22T00:24:42.187Z,98210.84
2022-10-22T00:27:09.265Z,98216.06
2022-10-22T00:29:36.326Z,98226.31
2022-10-22T00:32:03.428Z,98226.47
2022-10-22T00:34:30.538Z,98229.19
2022-10-22T00:36:57.601Z,98224.94
2022-10-22T00:39:24.677Z,98225.91
2022-10-22T00:41:51.817Z,98228.63
2022-10-22T00:44:18.879Z,98228.63
2022-10-22T00:46:45.963Z,98230.16
2022-10-22T00:49:13.072Z,98234.28
2022-10-22T00:51:40.141Z,98227.44
2022-10-22T00:54:07.281Z,98226.59
2022-10-22T00:56:34.407Z,98233.81
2022-10-22T00:59:01.562Z,98230.41
2022-10-22T01:01:28.661Z,98227.13
2022-10-22T01:03:55.754Z,98227.13
2022-10-22T01:06:22.813Z,98232.44
2022-10-22T01:08:49.916Z,98229.84
2022-10-22T01:11:17.082Z,98224.50
2022-10-22T01:13:44.167Z,98215.97
2022-10-22T01:16:11.306Z,98222.97
2022-10-22T01:18:38.382Z,98219.56
2022-10-22T01:21:05.475Z,98216.94
2022-10-22T01:23:32.549Z,98217.09
2022-10-22T01:25:59.738Z,98204.16
2022-10-22T01:28:26.825Z,98211.16
2022-10-22T01:30:53.897Z,98215.56
2022-10-22T01:33:20.969Z,98212.13
2022-10-22T01:35:48.076Z,98210.59
2022-10-22T01:38:15.230Z,98205.53
2022-10-22T01:40:42.310Z,98202.09
2022-10-22T01:43:09.368Z,98203.03
2022-10-22T01:45:36.607Z,98197.97
2022-10-22T01:48:03.669Z,98192.88
2022-10-22T01:50:30.738Z,98186.84
2022-10-22T01:52:57.811Z,98186.84
2022-10-22T01:55:24.894Z,98185.91
2022-10-22T01:57:51.975Z,98179.97
2022-10-22T02:00:19.039Z,98169.56
2022-10-22T02:05:33.151Z,98164.50
2022-10-22T02:08:00.216Z,98168.84
2022-10-22T02:10:27.286Z,98168.03
2022-10-22T02:12:54.350Z,98176.66
2022-10-22T02:15:21.888Z,98178.34
2022-10-22T02:17:49.044Z,98172.41
2022-10-22T02:20:16.119Z,98175.03
2022-10-22T02:22:43.596Z,98169.00
2022-10-22T02:25:10.818Z,98162.16
2022-10-22T02:27:37.922Z,98171.75
2022-10-22T02:30:05.061Z,98176.94
2022-10-22T02:32:32.268Z,98182.16
2022-10-22T02:34:59.366Z,98188.19
2022-10-22T02:37:26.442Z,98194.38
2022-10-22T02:39:53.530Z,98196.97
2022-10-22T02:42:20.646Z,98196.97
2022-10-22T02:44:47.715Z,98198.84
2022-10-22T02:47:14.786Z,98197.06
2022-10-22T02:49:41.935Z,98191.19
2022-10-22T02:52:09.026Z,98193.78
2022-10-22T02:54:36.110Z,98186.66
2022-10-22T02:57:03.217Z,98179.91
2022-10-22T02:59:30.290Z,98177.44
2022-10-22T03:01:57.405Z,98189.50
2022-10-22T03:04:24.537Z,98184.44
2022-10-22T03:06:51.723Z,98188.69
2022-10-22T03:09:21.371Z,98188.84
2022-10-22T03:11:51.216Z,98183.63
2022-10-22T03:14:18.385Z,98184.59
2022-10-22T03:16:45.472Z,98189.78
2022-10-22T03:19:12.557Z,98208.69
2022-10-22T03:21:39.626Z,98200.22
2022-10-22T03:24:06.729Z,98208.84
2022-10-22T03:26:33.852Z,98208.84
2022-10-22T03:29:00.979Z,98211.56
2022-10-22T03:31:28.061Z,98229.78
2022-10-22T03:33:55.148Z,98233.22
2022-10-22T03:36:22.231Z,98240.19
2022-10-22T03:38:49.378Z,98229.78
2022-10-22T03:41:16.495Z,98229.09
2022-10-22T03:43:45.178Z,98233.34
2022-10-22T03:46:12.268Z,98241.16
2022-10-22T03:48:39.424Z,98253.38
2022-10-22T03:51:06.501Z,98261.19
2022-10-22T03:53:33.619Z,98269.00
2022-10-22T03:56:00.699Z,98267.34
2022-10-22T03:58:27.870Z,98277.75
2022-10-22T04:00:55.004Z,98276.91
2022-10-22T04:03:22.123Z,98274.31
2022-10-22T04:05:49.207Z,98285.69
2022-10-22T04:08:16.278Z,98290.78
2022-10-22T04:10:43.379Z,98297.75
2022-10-22T04:13:10.475Z,98295.13
2022-10-22T04:15:37.619Z,98292.53
2022-10-22T04:18:04.727Z,98296.91
2022-10-22T04:20:31.820Z,98291.72
2022-10-22T04:22:58.900Z,98305.69
2022-10-22T04:25:26.056Z,98307.56
2022-10-22T04:27:53.110Z,98310.19
2022-10-22T04:30:20.174Z,98313.63
2022-10-22T04:32:47.271Z,98305.81
2022-10-22T04:35:14.391Z,98306.75
2022-10-22T04:37:41.769Z,98307.56
2022-10-22T04:40:09.308Z,98312.78
2022-10-22T04:42:36.388Z,98312.78
2022-10-22T04:45:03.459Z,98312.09
2022-10-22T04:47:30.538Z,98321.56
2022-10-22T04:49:57.605Z,98322.38
2022-10-22T04:52:24.675Z,98327.72
2022-10-22T04:54:51.751Z,98325.13
2022-10-22T04:57:18.830Z,98326.91
2022-10-22T04:59:45.951Z,98328.69
2022-10-22T05:02:13.012Z,98328.69
2022-10-22T05:04:40.104Z,98330.47
2022-10-22T05:07:07.199Z,98323.47
2022-10-22T05:09:34.310Z,98328.69
2022-10-22T05:12:01.371Z,98335.53
2022-10-22T05:14:28.445Z,98325.25
2022-10-22T05:16:55.544Z,98324.41
2022-10-22T05:19:24.163Z,98322.75
2022-10-22T05:21:51.413Z,98331.38
2022-10-22T05:24:18.496Z,98337.41
2022-10-22T05:26:45.574Z,98338.28
2022-10-22T05:29:12.681Z,98332.34
2022-10-22T05:31:39.775Z,98333.16
2022-10-22T05:34:06.899Z,98332.34
2022-10-22T05:36:33.983Z,98338.38
2022-10-22T05:39:01.102Z,98348.78
2022-10-22T05:41:28.215Z,98346.31
2022-10-22T05:43:55.454Z,98351.41
2022-10-22T05:46:23.216Z,98345.38
2022-10-22T05:48:50.552Z,98347.16
2022-10-22T05:51:17.693Z,98350.72
2022-10-22T05:53:44.808Z,98349.84
2022-10-22T05:56:11.879Z,98343.81
2022-10-22T05:58:38.967Z,98354.13
2022-10-22T06:01:06.088Z,98359.34
2022-10-22T06:03:33.170Z,98357.66
2022-10-22T06:06:00.292Z,98375.88
2022-10-22T06:08:27.361Z,98394.13
2022-10-22T06:10:54.425Z,98401.94
2022-10-22T06:13:22.878Z,98411.41
2022-10-22T06:15:49.942Z,98421.94
2022-10-22T06:18:17.082Z,98438.38
2022-10-22T06:20:45.468Z,98437.56
2022-10-22T06:23:12.588Z,98443.59
2022-10-22T06:25:39.727Z,98445.50
2022-10-22T06:28:06.791Z,98435.91
2022-10-22T06:30:33.881Z,98441.13
2022-10-22T06:33:00.976Z,98440.28
2022-10-22T06:35:28.108Z,98440.41
2022-10-22T06:37:55.169Z,98430.94
2022-10-22T06:40:22.272Z,98443.97
2022-10-22T06:42:49.343Z,98443.97
2022-10-22T06:45:16.456Z,98444.78
2022-10-22T06:47:43.799Z,98451.66
2022-10-22T06:50:11.115Z,98463.81
2022-10-22T06:52:38.244Z,98461.22
2022-10-22T06:55:05.386Z,98454.38
2022-10-22T06:57:32.474Z,98451.75
2022-10-22T06:59:59.554Z,98449.16
2022-10-22T07:02:26.708Z,98459.56
2022-10-22T07:04:53.837Z,98458.75
2022-10-22T07:07:20.918Z,98471.78
2022-10-22T07:09:50.575Z,98470.94
2022-10-22T07:12:18.513Z,98476.03
2022-10-22T07:14:45.597Z,98497.81
2022-10-22T07:17:12.696Z,98501.22
2022-10-22T07:19:39.793Z,98510.69
2022-10-22T07:22:06.867Z,98515.06
2022-10-22T07:24:33.936Z,98510.69
2022-10-22T07:27:01.075Z,98509.19
2022-10-22T07:29:28.422Z,98501.22
2022-10-22T07:31:55.494Z,98508.22
2022-10-22T07:34:22.578Z,98504.78
2022-10-22T07:36:49.714Z,98507.53
2022-10-22T07:39:16.791Z,98515.22
2022-10-22T07:41:43.869Z,98523.97
2022-10-22T07:44:10.947Z,98516.97
2022-10-22T07:46:38.041Z,98521.25
2022-10-22T07:49:05.149Z,98520.41
2022-10-22T07:51:32.233Z,98522.06
2022-10-22T07:53:59.388Z,98526.44
2022-10-22T07:56:26.467Z,98527.28
2022-10-22T07:58:53.607Z,98522.06
2022-10-22T08:01:20.726Z,98517.69
2022-10-22T08:03:48.847Z,98518.50
2022-10-22T08:06:15.978Z,98522.78
2022-10-22T08:08:43.674Z,98522.78
2022-10-22T08:11:11.005Z,98522.78
2022-10-22T08:13:42.774Z,98529.63
2022-10-22T08:16:12.120Z,98541.59
2022-10-22T08:18:39.573Z,98546.69
2022-10-22T08:21:06.644Z,98543.25
2022-10-22T08:23:34.455Z,98556.13
2022-10-22T08:26:03.020Z,98557.00
2022-10-22T08:28:31.290Z,98565.63
2022-10-22T08:30:58.395Z,98563.03
2022-10-22T08:33:25.491Z,98565.63
2022-10-22T08:35:52.685Z,98568.94
2022-10-22T08:38:19.754Z,98574.97
2022-10-22T08:40:46.832Z,98570.72
2022-10-22T08:43:13.936Z,98573.31
2022-10-22T08:45:41.547Z,98574.13
2022-10-22T08:48:08.671Z,98562.75
2022-10-22T08:50:35.901Z,98567.16
2022-10-22T08:53:02.976Z,98563.72
2022-10-22T08:55:32.734Z,98564.44
2022-10-22T08:58:03.545Z,98558.28
2022-10-22T09:00:30.675Z,98565.28
2022-10-22T09:02:57.763Z,98573.91
2022-10-22T09:05:25.176Z,98577.34
2022-10-22T09:07:53.162Z,98581.72
2022-10-22T09:10:20.356Z,98582.53
2022-10-22T09:12:47.463Z,98584.31
2022-10-22T09:15:15.047Z,98589.41
2022-10-22T09:17:42.501Z,98584.19
2022-10-22T09:20:09.880Z,98581.59
2022-10-22T09:22:37.266Z,98584.19
2022-10-22T09:25:04.419Z,98580.75
2022-10-22T09:27:31.538Z,98585.16
2022-10-22T09:29:58.641Z,98584.19
2022-10-22T09:32:25.876Z,98584.31
2022-10-22T09:34:52.975Z,98582.53
2022-10-22T09:37:20.136Z,98585.16
2022-10-22T09:39:47.230Z,98585.97
2022-10-22T09:42:14.375Z,98583.38
2022-10-22T09:44:44.934Z,98581.72
2022-10-22T09:47:14.800Z,98586.81
2022-10-22T09:49:42.843Z,98592.00
2022-10-22T09:52:12.734Z,98591.19
2022-10-22T09:54:39.823Z,98598.16
2022-10-22T09:57:06.905Z,98590.34
2022-10-22T09:59:34.070Z,98596.38
2022-10-22T10:02:13.419Z,98604.09
2022-10-22T10:04:47.668Z,98600.69
2022-10-22T10:07:14.918Z,98594.59
2022-10-22T10:09:42.000Z,98593.78
2022-10-22T10:12:09.176Z,98597.22
2022-10-22T10:14:36.270Z,98599.00
2022-10-22T10:17:03.355Z,98589.41
2022-10-22T10:19:30.456Z,98589.31
2022-10-22T10:21:57.827Z,98594.59
2022-10-22T10:24:24.931Z,98598.06
2022-10-22T10:26:52.014Z,98594.59
2022-10-22T10:29:19.099Z,98601.59
2022-10-22T10:31:46.242Z,98593.09
2022-10-22T10:34:13.335Z,98600.53
2022-10-22T10:36:40.403Z,98594.28
2022-10-22T10:39:07.487Z,98599.22
2022-10-22T10:41:34.610Z,98603.75
2022-10-22T10:44:01.727Z,98597.56
2022-10-22T10:46:30.302Z,98606.00
2022-10-22T10:48:59.352Z,98607.63
2022-10-22T10:51:26.427Z,98601.59
2022-10-22T10:53:53.507Z,98602.19
2022-10-22T10:56:20.633Z,98603.28
2022-10-22T10:58:47.727Z,98608.50
2022-10-22T11:01:14.853Z,98610.59
2022-10-22T11:03:42.068Z,98606.47
2022-10-22T11:06:09.165Z,98605.41
2022-10-22T11:08:36.326Z,98609.19
2022-10-22T11:11:03.541Z,98610.00
2022-10-22T11:13:30.752Z,98615.00
2022-10-22T11:15:57.913Z,98624.59
2022-10-22T11:18:25.027Z,98612.25
2022-10-22T11:20:52.102Z,98612.50
2022-10-22T11:23:20.886Z,98609.91
2022-10-22T11:25:48.633Z,98616.78
2022-10-22T11:31:02.831Z,98608.72
2022-10-22T11:33:29.923Z,98610.38
2022-10-22T11:35:57.047Z,98604.34
2022-10-22T11:38:24.170Z,98603.75
2022-10-22T11:40:51.263Z,98610.25
2022-10-22T11:43:18.369Z,98604.56
2022-10-22T11:45:45.495Z,98606.34
2022-10-22T11:48:13.166Z,98607.03
2022-10-22T11:50:40.563Z,98604.69
2022-10-22T11:53:09.255Z,98604.69
2022-10-22T11:55:36.483Z,98606.44
2022-10-22T11:58:03.613Z,98613.22
2022-10-22T12:00:31.270Z,98610.38
2022-10-22T12:02:58.367Z,98602.78
2022-10-22T12:05:25.533Z,98610.72
2022-10-22T12:07:52.664Z,98609.19
2022-10-22T12:10:19.766Z,98608.22
2022-10-22T12:12:46.850Z,98607.19
2022-10-22T12:15:14.000Z,98602.09
2022-10-22T12:17:41.096Z,98603.03
2022-10-22T12:20:08.177Z,98603.84
2022-10-22T12:22:38.374Z,98603.16
2022-10-22T12:25:05.587Z,98607.53
2022-10-22T12:27:32.695Z,98598.06
2022-10-22T12:29:59.783Z,98593.69
2022-10-22T12:32:26.859Z,98605.88
2022-10-22T12:34:54.019Z,98599.72
2022-10-22T12:37:21.155Z,98590.13
2022-10-22T12:39:48.251Z,98584.91
2022-10-22T12:42:15.458Z,98581.50
2022-10-22T12:44:42.575Z,98578.88
2022-10-22T12:47:09.694Z,98590.13
2022-10-22T12:49:36.935Z,98581.59
2022-10-22T12:52:04.341Z,98586.69
2022-10-22T12:54:31.449Z,98583.38
2022-10-22T12:56:58.695Z,98585.06
2022-10-22T12:59:25.844Z,98590.25
2022-10-22T13:01:53.012Z,98585.75
2022-10-22T13:04:20.176Z,98583.97
2022-10-22T13:06:47.289Z,98587.38
2022-10-22T13:09:14.585Z,98584.91
2022-10-22T13:11:41.811Z,98581.34
2022-10-22T13:14:08.874Z,98584.91
2022-10-22T13:19:03.079Z,98584.69
2022-10-22T13:21:30.292Z,98574.28
2022-10-22T13:23:57.468Z,98582.78
2022-10-22T13:26:24.557Z,98579.25
2022-10-22T13:28:51.744Z,98576.88
2022-10-22T13:31:18.890Z,98577.69
2022-10-22T13:33:45.968Z,98575.09
2022-10-22T13:36:13.042Z,98577.69
2022-10-22T13:38:40.189Z,98568.94
2022-10-22T13:41:07.247Z,98572.34
2022-10-22T13:43:34.310Z,98574.03
2022-10-22T13:46:01.629Z,98571.53
2022-10-22T13:48:28.748Z,98579.25
2022-10-22T13:50:55.885Z,98575.69
2022-10-22T13:53:22.970Z,98578.28
2022-10-22T13:55:53.084Z,98580.16
2022-10-22T13:58:20.165Z,98585.38
2022-10-22T14:00:47.309Z,98577.22
2022-10-22T14:03:14.462Z,98582.06
2022-10-22T14:05:41.589Z,98581.94
2022-10-22T14:08:08.655Z,98585.50
2022-10-22T14:10:35.754Z,98579.47
2022-10-22T14:13:02.825Z,98582.91
2022-10-22T14:15:29.957Z,98577.78
2022-10-22T14:17:57.041Z,98576.97
2022-10-22T14:20:24.436Z,98577.69
2022-10-22T14:22:51.579Z,98576.97
2022-10-22T14:25:18.659Z,98574.38
2022-10-22T14:27:45.738Z,98570.81
2022-10-22T14:30:12.824Z,98572.56
2022-10-22T14:32:40.226Z,98570.09
2022-10-22T14:35:07.516Z,98577.91
2022-10-22T14:37:34.603Z,98576.28
2022-10-22T14:40:02.667Z,98579.84
2022-10-22T14:42:30.093Z,98571.28
2022-10-22T14:44:57.234Z,98573.06
2022-10-22T14:47:24.347Z,98586.09
2022-10-22T14:49:51.459Z,98583.50
2022-10-22T14:52:20.191Z,98593.09
2022-10-22T14:54:48.639Z,98586.94
2022-10-22T14:57:16.621Z,98593.31
2022-10-22T14:59:43.742Z,98600.31
2022-10-22T15:02:10.815Z,98595.09
2022-10-22T15:04:37.890Z,98596.88
2022-10-22T15:07:04.974Z,98592.59
2022-10-22T15:09:32.080Z,98599.59
2022-10-22T15:11:59.163Z,98595.09
2022-10-22T15:14:26.258Z,98595.81
2022-10-22T15:16:53.410Z,98599.38
2022-10-22T15:19:20.520Z,98603.63
2022-10-22T15:21:47.603Z,98602.56
2022-10-22T15:24:14.711Z,98606.94
2022-10-22T15:26:41.827Z,98612.16
2022-10-22T15:29:08.998Z,98606.13
2022-10-22T15:31:36.319Z,98596.38
2022-10-22T15:34:03.486Z,98602.78
2022-10-22T15:36:30.595Z,98612.84
2022-10-22T15:38:57.705Z,98613.81
2022-10-22T15:41:24.790Z,98609.91
2022-10-22T15:43:51.868Z,98612.63
2022-10-22T15:46:18.957Z,98618.78
2022-10-22T15:48:46.070Z,98625.66
2022-10-22T15:51:13.214Z,98633.34
2022-10-22T15:53:40.336Z,98634.41
2022-10-22T15:56:07.468Z,98637.84
2022-10-22T15:58:34.576Z,98638.06
2022-10-22T16:01:01.736Z,98642.47
2022-10-22T16:03:28.921Z,98650.88
2022-10-22T16:05:57.311Z,98647.44
2022-10-22T16:08:24.412Z,98660.47
2022-10-22T16:10:51.522Z,98651.00
2022-10-22T16:13:20.854Z,98653.47
2022-10-22T16:15:47.922Z,98663.66
2022-10-22T16:18:14.986Z,98668.28
2022-10-22T16:20:42.083Z,98673.25
2022-10-22T16:23:09.348Z,98674.91
2022-10-22T16:25:36.437Z,98674.56
2022-10-22T16:28:06.435Z,98667.47
2022-10-22T16:30:34.075Z,98678.25
2022-10-22T16:33:03.360Z,98676.47
2022-10-22T16:35:30.831Z,98683.94
2022-10-22T16:37:57.919Z,98684.38
2022-10-22T16:40:25.004Z,98687.72
2022-10-22T16:42:52.107Z,98694.81
2022-10-22T16:45:19.256Z,98697.09
2022-10-22T16:47:48.448Z,98698.72
2022-10-22T16:50:15.611Z,98697.91
2022-10-22T16:52:42.710Z,98696.00
2022-10-22T16:55:09.832Z,98698.59
2022-10-22T16:57:36.995Z,98696.81
2022-10-22T17:00:04.108Z,98709.75
2022-10-22T17:02:31.282Z,98704.16
2022-10-22T17:04:58.426Z,98703.34
2022-10-22T17:07:25.608Z,98710.81
2022-10-22T17:09:52.691Z,98709.97
2022-10-22T17:12:19.883Z,98719.44
2022-10-22T17:14:47.057Z,98707.38
2022-10-22T17:17:14.177Z,98711.53
2022-10-22T17:19:41.315Z,98709.03
2022-10-22T17:22:08.498Z,98715.19
2022-10-22T17:24:36.180Z,98716.00
2022-10-22T17:29:50.333Z,98713.41
2022-10-22T17:32:17.426Z,98703.13
2022-10-22T17:34:44.514Z,98708.06
2022-10-22T17:37:12.786Z,98710.81
2022-10-22T17:39:39.860Z,98716.00
2022-10-22T17:42:06.999Z,98715.19
2022-10-22T17:44:34.127Z,98720.53
2022-10-22T17:47:01.825Z,98720.53
2022-10-22T17:49:28.972Z,98724.66
2022-10-22T17:51:56.127Z,98717.94
2022-10-22T17:54:23.219Z,98717.06
2022-10-22T17:56:50.383Z,98718.03
2022-10-22T17:59:18.031Z,98717.19
2022-10-22T18:01:46.923Z,98716.47
2022-10-22T18:04:14.311Z,98718.75
2022-10-22T18:06:41.424Z,98728.34
2022-10-22T18:09:08.513Z,98734.63
2022-10-22T18:11:36.604Z,98731.06
2022-10-22T18:14:03.730Z,98729.50
2022-10-22T18:16:30.837Z,98729.50
2022-10-22T18:18:57.973Z,98726.06
2022-10-22T18:21:26.099Z,98722.53
2022-10-22T18:23:53.187Z,98725.03
2022-10-22T18:26:22.922Z,98732.00
2022-10-22T18:28:53.061Z,98732.00
2022-10-22T18:31:20.238Z,98731.06
2022-10-22T18:33:47.380Z,98737.22
2022-10-22T18:36:14.518Z,98745.03
2022-10-22T18:38:41.596Z,98740.66
2022-10-22T18:41:08.667Z,98746.69
2022-10-22T18:43:35.814Z,98746.81
2022-10-22T18:46:02.890Z,98744.22
2022-10-22T18:48:29.984Z,98741.59
2022-10-22T18:50:57.531Z,98740.66
2022-10-22T18:53:25.385Z,98746.81
2022-10-22T18:55:52.443Z,98746.00
2022-10-22T18:58:19.524Z,98745.25
2022-10-22T19:00:46.628Z,98748.81
2022-10-22T19:03:14.007Z,98753.22
2022-10-22T19:05:41.100Z,98760.06
2022-10-22T19:08:08.195Z,98762.78
2022-10-22T19:10:35.289Z,98767.06
2022-10-22T19:13:02.360Z,98764.31
2022-10-22T19:17:56.465Z,98760.75
2022-10-22T19:20:23.580Z,98764.22
2022-10-22T19:22:50.702Z,98767.88
2022-10-22T19:25:17.817Z,98765.38
2022-10-22T19:27:45.250Z,98767.88
2022-10-22T19:30:12.475Z,98770.50
2022-10-22T19:32:39.592Z,98764.31
2022-10-22T19:35:06.705Z,98772.88
2022-10-22T19:37:33.803Z,98766.22
2022-10-22T19:40:00.923Z,98771.44
2022-10-22T19:42:28.024Z,98762.78
2022-10-22T19:44:55.168Z,98763.84
2022-10-22T19:47:22.249Z,98763.03
2022-10-22T19:49:49.326Z,98774.28
2022-10-22T19:52:16.466Z,98764.69
2022-10-22T19:54:45.654Z,98770.03
2022-10-22T19:57:12.739Z,98775.22
2022-10-22T19:59:39.815Z,98770.72
2022-10-22T20:02:06.881Z,98773.31
2022-10-22T20:04:34.035Z,98768.13
2022-10-22T20:07:01.105Z,98769.75
2022-10-22T20:09:28.231Z,98772.50
2022-10-22T20:11:55.318Z,98774.28
2022-10-22T20:14:22.383Z,98773.44
2022-10-22T20:16:49.504Z,98776.06
2022-10-22T20:19:16.581Z,98777.84
2022-10-22T20:21:43.718Z,98774.38
2022-10-22T20:24:10.852Z,98773.31
2022-10-22T20:26:38.004Z,98781.13
2022-10-22T20:29:05.213Z,98777.84
2022-10-22T20:31:33.120Z,98777.72
2022-10-22T20:34:01.068Z,98776.97
2022-10-22T20:36:28.189Z,98778.75
2022-10-22T20:38:55.288Z,98784.09
2022-10-22T20:41:22.406Z,98782.31
2022-10-22T20:43:49.550Z,98775.31
2022-10-22T20:46:16.628Z,98775.31
2022-10-22T20:48:43.705Z,98779.59
2022-10-22T20:51:10.929Z,98778.97
2022-10-22T20:53:38.096Z,98778.97
2022-10-22T20:56:05.740Z,98777.22
2022-10-22T20:58:32.924Z,98778.97
2022-10-22T21:01:05.420Z,98765.13
2022-10-22T21:06:00.739Z,98764.22
2022-10-22T21:08:27.847Z,98773.66
2022-10-22T21:10:54.911Z,98777.09
2022-10-22T21:13:22.053Z,98779.72
2022-10-22T21:15:49.126Z,98781.59
2022-10-22T21:18:16.198Z,98782.44
2022-10-22T21:20:43.282Z,98784.19
2022-10-22T21:23:10.367Z,98789.53
2022-10-22T21:25:40.814Z,98787.75
2022-10-22T21:28:10.410Z,98785.03
2022-10-22T21:30:37.483Z,98790.34
2022-10-22T21:33:04.562Z,98785.13
2022-10-22T21:35:33.383Z,98793.78
2022-10-22T21:38:00.527Z,98783.50
2022-10-22T21:40:28.006Z,98780.88
2022-10-22T21:42:55.081Z,98778.28
2022-10-22T21:45:22.641Z,98784.31
2022-10-22T21:47:49.855Z,98775.69
2022-10-22T21:50:16.931Z,98782.53
2022-10-22T21:52:44.048Z,98778.94
2022-10-22T21:55:11.104Z,98778.47
2022-10-22T21:57:38.221Z,98777.78
2022-10-22T22:00:05.353Z,98771.00
2022-10-22T22:02:32.479Z,98780.59
2022-10-22T22:04:59.564Z,98776.44
2022-10-22T22:07:26.676Z,98779.03
2022-10-22T22:09:53.764Z,98776.31
2022-10-22T22:12:21.249Z,98773.00
2022-10-22T22:14:48.323Z,98766.00
2022-10-22T22:17:18.659Z,98775.59
2022-10-22T22:19:45.867Z,98774.66
2022-10-22T22:22:12.985Z,98776.44
2022-10-22T22:24:40.070Z,98776.44
2022-10-22T22:27:07.226Z,98763.41
2022-10-22T22:29:34.420Z,98761.75
2022-10-22T22:32:01.514Z,98759.25
2022-10-22T22:34:28.587Z,98755.72
2022-10-22T22:36:55.682Z,98756.66
2022-10-22T22:39:23.551Z,98760.94
2022-10-22T22:41:50.790Z,98759.25
2022-10-22T22:44:17.959Z,98755.81
2022-10-22T22:46:45.052Z,98761.03
2022-10-22T22:49:12.149Z,98752.50
2022-10-22T22:51:39.308Z,98752.50
2022-10-22T22:54:06.415Z,98752.50
2022-10-22T22:56:34.575Z,98741.28
2022-10-22T22:59:01.699Z,98737.00
2022-10-22T23:01:29.070Z,98730.94
2022-10-22T23:03:56.231Z,98730.13
2022-10-22T23:06:23.409Z,98734.50
2022-10-22T23:08:50.632Z,98730.13
2022-10-22T23:11:17.942Z,98725.75
2022-10-22T23:13:45.022Z,98724.09
2022-10-22T23:16:12.123Z,98720.66
2022-10-22T23:18:39.207Z,98722.44
2022-10-22T23:21:06.454Z,98728.47
2022-10-22T23:23:33.617Z,98726.78
2022-10-22T23:26:00.686Z,98720.75
2022-10-22T23:28:27.761Z,98722.53
2022-10-22T23:30:54.819Z,98719.94
2022-10-22T23:33:21.902Z,98726.09
2022-10-22T23:35:48.976Z,98725.13
2022-10-22T23:38:16.109Z,98730.34
2022-10-22T23:40:43.171Z,98731.19
2022-10-22T23:43:10.248Z,98736.50
2022-10-22T23:45:37.329Z,98740.88
2022-10-22T23:48:04.394Z,98742.66
2022-10-22T23:50:31.544Z,98753.09
2022-10-22T23:52:58.688Z,98751.31
2022-10-22T23:55:25.798Z,98747.88
2022-10-22T23:57:52.914Z,98747.97
